createdAt,value
2018-09-11T00:02:27.975Z,102074.10
2018-09-11T00:04:57.127Z,102070.53
2018-09-11T00:07:25.960Z,102064.38
2018-09-11T00:09:54.796Z,102070.38
2018-09-11T00:12:23.701Z,102058.44
2018-09-11T00:14:52.455Z,102066.03
2018-09-11T00:17:21.272Z,102062.90
2018-09-11T00:19:50.076Z,102054.02
2018-09-11T00:22:18.945Z,102057.80
2018-09-11T00:24:47.861Z,102063.11
2018-09-11T00:27:16.793Z,102061.58
2018-09-11T00:29:45.549Z,102054.77
2018-09-11T00:32:14.422Z,102050.29
2018-09-11T00:34:43.518Z,102046.60
2018-09-11T00:37:12.669Z,102038.22
2018-09-11T00:39:41.531Z,102040.24
2018-09-11T00:42:10.360Z,102043.81
2018-09-11T00:44:39.259Z,102043.58
2018-09-11T00:47:08.560Z,102039.06
2018-09-11T00:49:37.732Z,102039.33
2018-09-11T00:52:06.542Z,102051.31
2018-09-11T00:54:35.452Z,102054.50
2018-09-11T00:57:04.219Z,102057.00
2018-09-11T00:59:33.298Z,102049.62
2018-09-11T01:02:02.183Z,102051.63
2018-09-11T01:04:31.091Z,102046.08
2018-09-11T01:06:59.948Z,102049.93
2018-09-11T01:09:28.784Z,102045.27
2018-09-11T01:11:57.621Z,102043.04
2018-09-11T01:14:26.556Z,102045.23
2018-09-11T01:16:55.374Z,102050.63
2018-09-11T01:19:24.250Z,102045.08
2018-09-11T01:21:53.200Z,102046.07
2018-09-11T01:24:22.036Z,102043.09
2018-09-11T01:26:50.914Z,102045.85
2018-09-11T01:29:19.738Z,102044.16
2018-09-11T01:31:48.808Z,102046.74
2018-09-11T01:34:17.661Z,102048.20
2018-09-11T01:36:46.570Z,102053.41
2018-09-11T01:39:15.448Z,102057.22
2018-09-11T01:41:44.269Z,102054.06
2018-09-11T01:44:13.108Z,102058.31
2018-09-11T01:46:41.943Z,102049.09
2018-09-11T01:49:10.854Z,102048.73
2018-09-11T01:51:39.933Z,102046.91
2018-09-11T01:54:08.708Z,102044.98
2018-09-11T01:56:37.519Z,102036.31
2018-09-11T01:59:06.468Z,102038.81
2018-09-11T02:01:35.343Z,102044.75
2018-09-11T02:04:04.199Z,102038.09
2018-09-11T02:06:33.096Z,102039.02
2018-09-11T02:09:01.923Z,102034.16
2018-09-11T02:11:30.774Z,102040.59
2018-09-11T02:13:59.576Z,102034.66
2018-09-11T02:16:28.452Z,102034.52
2018-09-11T02:18:57.256Z,102038.47
2018-09-11T02:21:26.129Z,102036.80
2018-09-11T02:23:55.186Z,102044.63
2018-09-11T02:26:24.009Z,102043.81
2018-09-11T02:28:52.877Z,102039.23
2018-09-11T02:31:21.689Z,102044.30
2018-09-11T02:33:50.456Z,102052.80
2018-09-11T02:36:19.294Z,102053.44
2018-09-11T02:38:48.128Z,102061.02
2018-09-11T02:41:16.960Z,102059.08
2018-09-11T02:43:45.816Z,102058.59
2018-09-11T02:46:14.633Z,102054.84
2018-09-11T02:48:43.474Z,102046.39
2018-09-11T02:51:12.300Z,102040.94
2018-09-11T02:53:41.216Z,102042.77
2018-09-11T02:56:10.000Z,102046.45
2018-09-11T02:58:38.842Z,102037.70
2018-09-11T03:01:07.641Z,102036.09
2018-09-11T03:03:36.504Z,102032.23
2018-09-11T03:06:05.633Z,102032.72
2018-09-11T03:08:34.497Z,102020.06
2018-09-11T03:11:03.264Z,102023.68
2018-09-11T03:13:32.100Z,102017.84
2018-09-11T03:16:01.238Z,102011.33
2018-09-11T03:18:30.250Z,102000.17
2018-09-11T03:20:59.040Z,102005.94
2018-09-11T03:23:27.896Z,102005.98
2018-09-11T03:25:56.666Z,101999.77
2018-09-11T03:28:25.548Z,101994.77
2018-09-11T03:30:54.424Z,101988.41
2018-09-11T03:33:23.197Z,101991.87
2018-09-11T03:35:52.060Z,101987.94
2018-09-11T03:38:20.867Z,101981.96
2018-09-11T03:40:49.779Z,101985.34
2018-09-11T03:43:18.867Z,101980.67
2018-09-11T03:45:48.334Z,101979.94
2018-09-11T03:48:19.852Z,101978.98
2018-09-11T03:50:49.895Z,101969.61
2018-09-11T03:53:18.900Z,101973.73
2018-09-11T03:55:48.208Z,101966.14
2018-09-11T03:58:17.750Z,101960.54
2018-09-11T04:00:46.696Z,101959.77
2018-09-11T04:03:15.472Z,101953.31
2018-09-11T04:05:44.382Z,101954.15
2018-09-11T04:08:13.219Z,101955.08
2018-09-11T04:10:42.368Z,101949.98
2018-09-11T04:13:11.144Z,101950.03
2018-09-11T04:15:39.956Z,101940.98
2018-09-11T04:18:08.730Z,101951.56
2018-09-11T04:20:37.618Z,101946.42
2018-09-11T04:23:06.552Z,101940.28
2018-09-11T04:25:35.428Z,101942.19
2018-09-11T04:28:04.250Z,101949.55
2018-09-11T04:30:33.061Z,101941.42
2018-09-11T04:33:01.971Z,101936.52
2018-09-11T04:35:30.737Z,101928.50
2018-09-11T04:37:59.563Z,101927.66
2018-09-11T04:40:28.324Z,101931.99
2018-09-11T04:42:57.197Z,101932.33
2018-09-11T04:45:26.058Z,101938.99
2018-09-11T04:47:54.895Z,101941.34
2018-09-11T04:50:23.702Z,101941.56
2018-09-11T04:52:52.575Z,101953.83
2018-09-11T04:55:21.391Z,101955.12
2018-09-11T04:57:50.277Z,101942.80
2018-09-11T05:00:19.405Z,101943.36
2018-09-11T05:02:48.276Z,101937.45
2018-09-11T05:05:17.492Z,101927.02
2018-09-11T05:07:46.411Z,101928.25
2018-09-11T05:10:15.577Z,101925.32
2018-09-11T05:12:44.443Z,101912.14
2018-09-11T05:15:13.303Z,101917.80
2018-09-11T05:17:42.308Z,101914.38
2018-09-11T05:20:11.112Z,101921.41
2018-09-11T05:22:40.002Z,101920.02
2018-09-11T05:25:09.241Z,101908.37
2018-09-11T05:27:38.071Z,101900.41
2018-09-11T05:30:07.635Z,101890.05
2018-09-11T05:32:36.428Z,101893.20
2018-09-11T05:35:05.385Z,101907.63
2018-09-11T05:37:34.172Z,101909.81
2018-09-11T05:40:03.032Z,101911.87
2018-09-11T05:42:32.144Z,101911.72
2018-09-11T05:45:01.651Z,101915.52
2018-09-11T05:47:30.507Z,101920.56
2018-09-11T05:49:59.418Z,101919.29
2018-09-11T05:52:34.946Z,101912.82
2018-09-11T05:55:03.926Z,101917.58
2018-09-11T05:57:32.991Z,101921.23
2018-09-11T06:00:01.902Z,101914.15
2018-09-11T06:02:30.875Z,101930.17
2018-09-11T06:04:59.893Z,101933.70
2018-09-11T06:07:28.650Z,101937.78
2018-09-11T06:09:57.572Z,101935.08
2018-09-11T06:12:26.384Z,101953.59
2018-09-11T06:14:55.215Z,101954.76
2018-09-11T06:17:23.992Z,101951.77
2018-09-11T06:19:52.928Z,101934.83
2018-09-11T06:22:21.803Z,101936.64
2018-09-11T06:24:50.622Z,101940.62
2018-09-11T06:27:19.479Z,101938.11
2018-09-11T06:29:48.334Z,101928.84
2018-09-11T06:32:17.171Z,101926.92
2018-09-11T06:34:46.015Z,101923.53
2018-09-11T06:37:14.858Z,101932.70
2018-09-11T06:39:43.790Z,101929.33
2018-09-11T06:42:12.655Z,101927.24
2018-09-11T06:44:41.462Z,101929.69
2018-09-11T06:47:10.488Z,101920.61
2018-09-11T06:49:39.251Z,101912.80
2018-09-11T06:52:08.116Z,101904.89
2018-09-11T06:54:37.087Z,101906.67
2018-09-11T06:57:06.135Z,101901.11
2018-09-11T06:59:34.998Z,101902.03
2018-09-11T07:02:03.911Z,101894.20
2018-09-11T07:04:32.740Z,101898.30
2018-09-11T07:07:01.838Z,101909.27
2018-09-11T07:09:30.579Z,101909.16
2018-09-11T07:11:59.468Z,101915.05
2018-09-11T07:14:28.234Z,101912.34
2018-09-11T07:16:57.073Z,101905.67
2018-09-11T07:19:25.842Z,101907.30
2018-09-11T07:21:54.806Z,101908.18
2018-09-11T07:24:23.976Z,101910.91
2018-09-11T07:26:52.846Z,101904.27
2018-09-11T07:29:21.825Z,101903.99
2018-09-11T07:31:50.752Z,101911.62
2018-09-11T07:34:19.583Z,101916.54
2018-09-11T07:36:48.440Z,101915.37
2018-09-11T07:39:17.279Z,101923.36
2018-09-11T07:41:46.150Z,101918.86
2018-09-11T07:44:15.010Z,101910.90
2018-09-11T07:46:43.796Z,101898.75
2018-09-11T07:49:12.790Z,101908.04
2018-09-11T07:51:41.582Z,101912.09
2018-09-11T07:54:10.435Z,101902.95
2018-09-11T07:56:45.835Z,101887.80
2018-09-11T07:59:14.797Z,101876.39
2018-09-11T08:01:43.643Z,101867.13
2018-09-11T08:04:12.493Z,101872.84
2018-09-11T08:06:41.352Z,101879.08
2018-09-11T08:09:12.245Z,101889.62
2018-09-11T08:11:41.134Z,101885.63
2018-09-11T08:14:10.071Z,101884.73
2018-09-11T08:16:39.015Z,101876.19
2018-09-11T08:19:07.844Z,101893.81
2018-09-11T08:21:36.681Z,101894.80
2018-09-11T08:24:05.566Z,101914.95
2018-09-11T08:26:34.472Z,101913.44
2018-09-11T08:29:03.388Z,101923.48
2018-09-11T08:31:32.662Z,101914.44
2018-09-11T08:34:01.519Z,101914.55
2018-09-11T08:36:30.451Z,101916.95
2018-09-11T08:38:59.350Z,101911.24
2018-09-11T08:41:28.255Z,101897.39
2018-09-11T08:43:57.028Z,101892.97
2018-09-11T08:46:25.913Z,101906.86
2018-09-11T08:48:54.761Z,101908.05
2018-09-11T08:51:23.583Z,101905.45
2018-09-11T08:53:52.379Z,101908.47
2018-09-11T08:56:21.204Z,101910.66
2018-09-11T08:58:50.034Z,101912.70
2018-09-11T09:01:19.076Z,101921.38
2018-09-11T09:03:47.852Z,101926.31
2018-09-11T09:06:16.735Z,101925.55
2018-09-11T09:08:45.558Z,101915.86
2018-09-11T09:11:14.424Z,101919.80
2018-09-11T09:13:43.271Z,101926.69
2018-09-11T09:16:12.192Z,101934.19
2018-09-11T09:18:41.009Z,101928.48
2018-09-11T09:21:09.868Z,101910.86
2018-09-11T09:23:38.961Z,101913.45
2018-09-11T09:26:07.791Z,101908.53
2018-09-11T09:28:36.651Z,101915.64
2018-09-11T09:31:05.449Z,101893.45
2018-09-11T09:33:34.365Z,101888.73
2018-09-11T09:36:03.178Z,101883.53
2018-09-11T09:38:32.113Z,101882.16
2018-09-11T09:41:00.966Z,101890.48
2018-09-11T09:43:29.799Z,101880.97
2018-09-11T09:45:58.610Z,101899.51
2018-09-11T09:48:27.410Z,101899.08
2018-09-11T09:50:56.340Z,101900.06
2018-09-11T09:53:25.125Z,101902.90
2018-09-11T09:55:54.431Z,101896.14
2018-09-11T09:58:23.244Z,101900.12
2018-09-11T10:01:59.916Z,101899.16
2018-09-11T10:04:28.813Z,101909.02
2018-09-11T10:06:57.638Z,101903.42
2018-09-11T10:09:26.791Z,101913.05
2018-09-11T10:11:55.625Z,101905.89
2018-09-11T10:14:24.421Z,101919.55
2018-09-11T10:16:53.264Z,101916.27
2018-09-11T10:19:22.193Z,101916.52
2018-09-11T10:21:51.008Z,101901.37
2018-09-11T10:24:19.828Z,101905.75
2018-09-11T10:26:48.599Z,101903.12
2018-09-11T10:29:17.501Z,101904.54
2018-09-11T10:31:46.368Z,101900.47
2018-09-11T10:34:15.235Z,101888.31
2018-09-11T10:36:44.033Z,101899.94
2018-09-11T10:39:12.990Z,101888.55
2018-09-11T10:41:41.816Z,101881.52
2018-09-11T10:44:10.666Z,101878.73
2018-09-11T10:46:39.509Z,101894.70
2018-09-11T10:49:08.300Z,101887.27
2018-09-11T10:51:37.475Z,101893.16
2018-09-11T10:54:06.601Z,101880.63
2018-09-11T10:56:35.516Z,101887.27
2018-09-11T10:59:04.563Z,101886.47
2018-09-11T11:01:33.427Z,101895.45
2018-09-11T11:04:02.332Z,101886.33
2018-09-11T11:06:31.296Z,101885.47
2018-09-11T11:09:00.349Z,101884.02
2018-09-11T11:11:29.222Z,101883.93
2018-09-11T11:13:57.979Z,101874.34
2018-09-11T11:16:26.961Z,101882.47
2018-09-11T11:18:55.865Z,101874.34
2018-09-11T11:21:24.744Z,101863.53
2018-09-11T11:23:53.532Z,101859.92
2018-09-11T11:26:22.343Z,101857.93
2018-09-11T11:28:51.110Z,101862.02
2018-09-11T11:31:20.048Z,101858.06
2018-09-11T11:33:48.945Z,101859.34
2018-09-11T11:36:17.950Z,101875.20
2018-09-11T11:38:46.631Z,101878.84
2018-09-11T11:41:15.840Z,101879.89
2018-09-11T11:43:44.781Z,101880.34
2018-09-11T11:46:13.906Z,101883.84
2018-09-11T11:48:42.789Z,101867.22
2018-09-11T11:51:11.587Z,101879.75
2018-09-11T11:53:40.441Z,101872.49
2018-09-11T11:56:09.375Z,101861.34
2018-09-11T11:58:38.544Z,101869.75
2018-09-11T12:01:07.460Z,101870.02
2018-09-11T12:03:36.308Z,101879.74
2018-09-11T12:06:05.316Z,101877.47
2018-09-11T12:08:34.232Z,101878.24
2018-09-11T12:11:03.038Z,101882.35
2018-09-11T12:13:31.891Z,101876.59
2018-09-11T12:16:00.713Z,101869.25
2018-09-11T12:18:29.572Z,101858.87
2018-09-11T12:20:58.471Z,101862.13
2018-09-11T12:23:27.292Z,101855.62
2018-09-11T12:25:56.113Z,101859.25
2018-09-11T12:28:25.008Z,101866.41
2018-09-11T12:30:54.239Z,101875.88
2018-09-11T12:33:23.737Z,101864.80
2018-09-11T12:35:52.556Z,101879.38
2018-09-11T12:38:21.338Z,101862.14
2018-09-11T12:40:50.424Z,101865.02
2018-09-11T12:43:19.488Z,101857.89
2018-09-11T12:45:48.489Z,101846.63
2018-09-11T12:48:17.525Z,101854.94
2018-09-11T12:50:46.103Z,101853.71
2018-09-11T12:53:14.880Z,101848.25
2018-09-11T12:55:43.769Z,101843.36
2018-09-11T12:58:12.645Z,101830.70
2018-09-11T13:00:41.479Z,101833.61
2018-09-11T13:03:10.265Z,101842.71
2018-09-11T13:05:39.145Z,101846.93
2018-09-11T13:08:07.999Z,101845.44
2018-09-11T13:10:37.285Z,101850.55
2018-09-11T13:13:06.128Z,101839.14
2018-09-11T13:15:34.949Z,101842.24
2018-09-11T13:18:03.738Z,101844.89
2018-09-11T13:20:32.651Z,101843.05
2018-09-11T13:23:01.538Z,101846.84
2018-09-11T13:25:30.457Z,101844.55
2018-09-11T13:27:59.211Z,101837.86
2018-09-11T13:30:28.292Z,101845.56
2018-09-11T13:32:57.107Z,101837.70
2018-09-11T13:35:26.577Z,101837.52
2018-09-11T13:37:55.348Z,101836.80
2018-09-11T13:40:24.170Z,101838.38
2018-09-11T13:42:52.943Z,101837.73
2018-09-11T13:45:21.793Z,101840.91
2018-09-11T13:47:50.711Z,101838.32
2018-09-11T13:50:19.492Z,101840.28
2018-09-11T13:52:48.340Z,101851.12
2018-09-11T13:55:17.124Z,101844.89
2018-09-11T13:57:46.281Z,101841.12
2018-09-11T14:00:15.259Z,101845.50
2018-09-11T14:02:44.145Z,101849.74
2018-09-11T14:05:12.886Z,101847.12
2018-09-11T14:07:41.868Z,101858.98
2018-09-11T14:10:10.670Z,101861.16
2018-09-11T14:12:39.567Z,101861.16
2018-09-11T14:15:08.505Z,101857.58
2018-09-11T14:17:37.386Z,101864.21
2018-09-11T14:20:06.830Z,101863.35
2018-09-11T14:22:35.706Z,101874.77
2018-09-11T14:25:04.733Z,101872.11
2018-09-11T14:27:33.567Z,101859.30
2018-09-11T14:30:02.360Z,101859.77
2018-09-11T14:32:31.170Z,101865.98
2018-09-11T14:34:59.936Z,101866.84
2018-09-11T14:37:29.118Z,101854.72
2018-09-11T14:39:57.889Z,101856.83
2018-09-11T14:42:26.664Z,101860.74
2018-09-11T14:44:55.475Z,101863.53
2018-09-11T14:47:27.618Z,101859.98
2018-09-11T14:49:56.527Z,101865.98
2018-09-11T14:52:25.320Z,101867.95
2018-09-11T14:54:54.159Z,101863.84
2018-09-11T14:57:23.000Z,101859.83
2018-09-11T14:59:51.942Z,101866.52
2018-09-11T15:02:21.163Z,101859.38
2018-09-11T15:04:49.999Z,101874.70
2018-09-11T15:07:18.933Z,101874.14
2018-09-11T15:09:47.735Z,101864.28
2018-09-11T15:12:16.572Z,101868.23
2018-09-11T15:14:45.599Z,101877.17
2018-09-11T15:17:15.091Z,101879.12
2018-09-11T15:19:43.924Z,101872.72
2018-09-11T15:22:12.786Z,101875.50
2018-09-11T15:24:41.676Z,101876.27
2018-09-11T15:27:10.577Z,101870.66
2018-09-11T15:29:39.536Z,101870.62
2018-09-11T15:32:08.471Z,101881.50
2018-09-11T15:34:37.262Z,101882.90
2018-09-11T15:37:06.356Z,101881.09
2018-09-11T15:39:35.241Z,101880.55
2018-09-11T15:42:04.124Z,101876.48
2018-09-11T15:44:32.955Z,101879.27
2018-09-11T15:47:01.841Z,101884.41
2018-09-11T15:49:30.591Z,101889.97
2018-09-11T15:51:59.732Z,101885.88
2018-09-11T15:54:28.507Z,101891.61
2018-09-11T15:56:57.325Z,101884.96
2018-09-11T15:59:26.144Z,101891.72
2018-09-11T16:01:55.006Z,101889.84
2018-09-11T16:04:23.869Z,101885.19
2018-09-11T16:06:52.740Z,101885.50
2018-09-11T16:09:21.571Z,101883.89
2018-09-11T16:11:50.475Z,101888.03
2018-09-11T16:14:19.276Z,101878.37
2018-09-11T16:16:48.158Z,101879.10
2018-09-11T16:19:16.996Z,101875.54
2018-09-11T16:21:45.855Z,101872.07
2018-09-11T16:24:14.648Z,101874.27
2018-09-11T16:26:43.889Z,101874.59
2018-09-11T16:29:12.840Z,101882.78
2018-09-11T16:31:41.667Z,101895.97
2018-09-11T16:34:10.543Z,101884.05
2018-09-11T16:36:41.596Z,101884.55
2018-09-11T16:39:12.022Z,101885.53
2018-09-11T16:41:41.379Z,101899.17
2018-09-11T16:44:10.198Z,101901.65
2018-09-11T16:46:39.075Z,101899.77
2018-09-11T16:49:08.503Z,101903.86
2018-09-11T16:51:37.651Z,101913.56
2018-09-11T16:54:06.956Z,101907.09
2018-09-11T16:56:35.851Z,101907.13
2018-09-11T16:59:04.779Z,101903.77
2018-09-11T17:01:33.603Z,101903.06
2018-09-11T17:04:02.454Z,101910.80
2018-09-11T17:06:31.379Z,101917.62
2018-09-11T17:09:00.211Z,101909.47
2018-09-11T17:11:29.152Z,101916.49
2018-09-11T17:13:58.000Z,101915.13
2018-09-11T17:16:26.845Z,101907.80
2018-09-11T17:18:56.834Z,101911.75
2018-09-11T17:21:25.599Z,101902.86
2018-09-11T17:23:54.430Z,101904.63
2018-09-11T17:26:24.102Z,101911.00
2018-09-11T17:28:53.447Z,101910.59
2018-09-11T17:31:22.407Z,101910.17
2018-09-11T17:33:51.386Z,101904.06
2018-09-11T17:36:20.633Z,101922.11
2018-09-11T17:38:49.432Z,101909.95
2018-09-11T17:41:19.623Z,101914.01
2018-09-11T17:43:48.509Z,101914.19
2018-09-11T17:46:18.327Z,101913.39
2018-09-11T17:48:47.131Z,101914.17
2018-09-11T17:51:16.890Z,101917.18
2018-09-11T17:53:45.856Z,101917.13
2018-09-11T17:56:15.204Z,101921.95
2018-09-11T17:58:44.027Z,101925.88
2018-09-11T18:01:12.852Z,101920.90
2018-09-11T18:03:41.656Z,101920.56
2018-09-11T18:06:10.588Z,101914.80
2018-09-11T18:08:39.443Z,101915.17
2018-09-11T18:11:08.287Z,101913.00
2018-09-11T18:13:37.153Z,101909.61
2018-09-11T18:16:06.035Z,101906.09
2018-09-11T18:18:34.883Z,101912.80
2018-09-11T18:21:03.918Z,101907.08
2018-09-11T18:23:33.014Z,101912.63
2018-09-11T18:26:02.589Z,101925.30
2018-09-11T18:28:31.428Z,101923.52
2018-09-11T18:31:00.327Z,101931.45
2018-09-11T18:33:29.204Z,101930.87
2018-09-11T18:35:58.000Z,101937.20
2018-09-11T18:38:26.865Z,101940.97
2018-09-11T18:40:55.678Z,101937.23
2018-09-11T18:43:24.528Z,101941.97
2018-09-11T18:46:00.567Z,101940.99
2018-09-11T18:48:29.404Z,101949.08
2018-09-11T18:50:58.201Z,101952.06
2018-09-11T18:53:27.762Z,101958.98
2018-09-11T18:55:56.596Z,101954.44
2018-09-11T18:58:26.020Z,101952.67
2018-09-11T19:00:54.827Z,101952.47
2018-09-11T19:03:24.490Z,101948.30
2018-09-11T19:05:53.887Z,101947.94
2018-09-11T19:08:23.495Z,101956.84
2018-09-11T19:10:52.821Z,101960.80
2018-09-11T19:13:21.659Z,101961.41
2018-09-11T19:15:50.627Z,101960.20
2018-09-11T19:18:19.990Z,101955.64
2018-09-11T19:20:48.836Z,101964.97
2018-09-11T19:23:17.684Z,101962.98
2018-09-11T19:25:46.473Z,101966.14
2018-09-11T19:28:15.393Z,101966.55
2018-09-11T19:30:44.451Z,101963.97
2018-09-11T19:33:13.860Z,101974.06
2018-09-11T19:35:43.184Z,101970.32
2018-09-11T19:38:12.046Z,101969.73
2018-09-11T19:40:40.844Z,101962.80
2018-09-11T19:43:09.764Z,101965.94
2018-09-11T19:45:41.532Z,101960.20
2018-09-11T19:48:10.329Z,101952.28
2018-09-11T19:50:39.632Z,101953.09
2018-09-11T19:53:08.439Z,101954.66
2018-09-11T19:55:37.296Z,101954.47
2018-09-11T19:58:06.327Z,101950.52
2018-09-11T20:00:35.131Z,101946.92
2018-09-11T20:03:03.928Z,101945.53
2018-09-11T20:05:32.747Z,101949.33
2018-09-11T20:08:02.254Z,101942.58
2018-09-11T20:10:32.077Z,101947.14
2018-09-11T20:13:00.985Z,101947.14
2018-09-11T20:15:29.816Z,101950.50
2018-09-11T20:17:58.599Z,101944.95
2018-09-11T20:20:27.519Z,101941.00
2018-09-11T20:22:56.435Z,101933.05
2018-09-11T20:25:25.281Z,101926.92
2018-09-11T20:27:54.152Z,101935.44
2018-09-11T20:30:22.983Z,101931.67
2018-09-11T20:32:51.846Z,101925.94
2018-09-11T20:35:20.747Z,101934.45
2018-09-11T20:37:49.573Z,101935.44
2018-09-11T20:40:22.793Z,101935.82
2018-09-11T20:42:51.611Z,101942.56
2018-09-11T20:45:20.473Z,101938.83
2018-09-11T20:47:49.355Z,101930.67
2018-09-11T20:50:18.581Z,101930.08
2018-09-11T20:52:47.429Z,101932.27
2018-09-11T20:55:16.192Z,101932.27
2018-09-11T20:57:45.013Z,101934.07
2018-09-11T21:00:13.910Z,101935.83
2018-09-11T21:02:42.745Z,101936.21
2018-09-11T21:05:11.529Z,101934.07
2018-09-11T21:07:40.411Z,101941.78
2018-09-11T21:10:09.211Z,101942.58
2018-09-11T21:12:38.320Z,101948.13
2018-09-11T21:15:07.135Z,101948.13
2018-09-11T21:17:35.993Z,101939.20
2018-09-11T21:20:05.239Z,101944.38
2018-09-11T21:22:34.078Z,101941.39
2018-09-11T21:25:03.078Z,101940.80
2018-09-11T21:27:31.874Z,101938.62
2018-09-11T21:30:00.682Z,101934.66
2018-09-11T21:32:29.527Z,101926.13
2018-09-11T21:34:58.351Z,101928.70
2018-09-11T21:37:27.212Z,101922.97
2018-09-11T21:39:56.051Z,101921.18
2018-09-11T21:42:25.108Z,101919.58
2018-09-11T21:44:53.956Z,101929.69
2018-09-11T21:47:22.719Z,101930.09
2018-09-11T21:49:51.651Z,101929.30
2018-09-11T21:52:20.439Z,101920.98
2018-09-11T21:54:49.267Z,101922.95
2018-09-11T21:57:18.067Z,101927.53
2018-09-11T21:59:46.936Z,101930.89
2018-09-11T22:02:15.763Z,101934.06
2018-09-11T22:04:44.588Z,101928.12
2018-09-11T22:07:13.456Z,101927.72
2018-09-11T22:09:42.304Z,101925.75
2018-09-11T22:12:11.122Z,101925.94
2018-09-11T22:14:40.052Z,101923.16
2018-09-11T22:17:08.853Z,101915.06
2018-09-11T22:19:38.054Z,101915.86
2018-09-11T22:22:06.955Z,101916.05
2018-09-11T22:24:36.134Z,101922.57
2018-09-11T22:27:05.260Z,101924.36
2018-09-11T22:29:34.132Z,101929.11
2018-09-11T22:32:02.908Z,101921.02
2018-09-11T22:34:31.710Z,101921.59
2018-09-11T22:37:00.588Z,101926.15
2018-09-11T22:39:29.472Z,101923.38
2018-09-11T22:41:58.386Z,101921.41
2018-09-11T22:44:27.152Z,101917.44
2018-09-11T22:46:56.009Z,101924.77
2018-09-11T22:49:24.823Z,101917.03
2018-09-11T22:51:53.710Z,101905.75
2018-09-11T22:54:22.507Z,101912.30
2018-09-11T22:56:51.483Z,101911.09
2018-09-11T22:59:20.296Z,101902.39
2018-09-11T23:01:49.151Z,101905.16
2018-09-11T23:04:18.053Z,101896.23
2018-09-11T23:06:46.928Z,101905.36
2018-09-11T23:09:15.679Z,101897.61
2018-09-11T23:11:44.820Z,101894.67
2018-09-11T23:14:13.666Z,101889.52
2018-09-11T23:16:42.600Z,101891.89
2018-09-11T23:19:11.440Z,101893.29
2018-09-11T23:21:40.224Z,101888.91
2018-09-11T23:24:09.035Z,101880.80
2018-09-11T23:26:37.824Z,101883.98
2018-09-11T23:29:06.719Z,101883.98
2018-09-11T23:31:35.582Z,101889.12
2018-09-11T23:34:04.441Z,101885.95
2018-09-11T23:36:33.235Z,101882.57
2018-09-11T23:39:02.197Z,101888.73
2018-09-11T23:41:31.256Z,101889.50
2018-09-11T23:44:00.173Z,101889.89
2018-09-11T23:46:29.282Z,101885.95
2018-09-11T23:48:58.100Z,101889.53
2018-09-11T23:51:26.859Z,101886.55
2018-09-11T23:53:55.735Z,101884.17
2018-09-11T23:56:24.520Z,101886.73
2018-09-11T23:58:53.323Z,101884.17
